Time;durP1;ratioP1;P1;durP2;ratioP2;P2;SDS_P1;SDS_P2;PMS_P1;PMS_P2;Temp;Humidity;BMP_temperature;BMP_pressure;BME280_temperature;BME280_humidity;BME280_pressure;Samples;Min_cycle;Max_cycle;Signal;HPM_P1;HPM_P2
2021/06/27 00:02:18;;;;;;;15.15;6.35;;;;;;;16.60;90.19;94496.23;1649241;86;21095;-57
2021/06/27 00:04:45;;;;;;;9.65;5.45;;;;;;;16.65;90.02;94503.84;1651087;86;21011;-57
2021/06/27 00:07:13;;;;;;;6.87;5.50;;;;;;;16.67;89.74;94502.72;1654518;86;21048;-58
2021/06/27 00:09:44;;;;;;;13.35;6.37;;;;;;;16.70;89.50;94508.71;1656159;85;21124;-58
2021/06/27 00:12:13;;;;;;;10.78;6.40;;;;;;;16.71;89.24;94513.02;1656429;86;21022;-57
2021/06/27 00:14:40;;;;;;;10.35;8.23;;;;;;;16.73;89.12;94518.83;1647512;85;20994;-56
2021/06/27 00:17:06;;;;;;;16.50;7.80;;;;;;;16.75;89.32;94528.83;1653796;85;21145;-56
2021/06/27 00:19:33;;;;;;;29.35;6.80;;;;;;;16.79;89.29;94525.97;1659364;85;21143;-57
2021/06/27 00:22:00;;;;;;;16.87;6.97;;;;;;;16.78;88.54;94527.84;1658875;85;21614;-59
2021/06/27 00:24:27;;;;;;;15.20;7.42;;;;;;;16.71;88.39;94529.04;1663899;86;21018;-56
2021/06/27 00:26:53;;;;;;;10.48;6.30;;;;;;;16.65;88.32;94537.17;1660969;85;21034;-61
2021/06/27 00:29:21;;;;;;;13.68;6.53;;;;;;;16.59;88.51;94538.54;1648184;86;21085;-57
2021/06/27 00:31:48;;;;;;;20.80;9.63;;;;;;;16.55;88.72;94540.00;1648806;86;21148;-56
2021/06/27 00:34:15;;;;;;;16.35;8.68;;;;;;;16.54;88.82;94548.20;1657423;86;21019;-57
2021/06/27 00:36:43;;;;;;;10.85;8.20;;;;;;;16.52;89.04;94538.21;1650164;85;21020;-58
2021/06/27 00:39:10;;;;;;;16.40;8.38;;;;;;;16.49;89.17;94541.33;1606950;86;21105;-56
2021/06/27 00:41:37;;;;;;;12.63;7.25;;;;;;;16.47;89.40;94545.84;1653510;86;20963;-57
2021/06/27 00:44:05;;;;;;;11.15;7.08;;;;;;;16.50;89.68;94537.91;1653205;85;21032;-56
2021/06/27 00:46:32;;;;;;;12.45;7.45;;;;;;;16.53;89.98;94537.70;1652979;85;21098;-57
2021/06/27 00:48:59;;;;;;;11.00;6.62;;;;;;;16.59;90.17;94533.59;1653444;85;21074;-57
2021/06/27 00:51:27;;;;;;;17.73;6.83;;;;;;;16.63;90.20;94536.91;1645223;85;21231;-59
2021/06/27 00:53:54;;;;;;;25.15;7.53;;;;;;;16.64;90.14;94539.21;1610310;86;21581;-57
2021/06/27 00:56:20;;;;;;;15.13;6.28;;;;;;;16.67;89.97;94540.23;1649873;85;21140;-56
2021/06/27 00:58:47;;;;;;;17.05;12.78;;;;;;;16.66;89.81;94542.88;1650698;86;21597;-58
2021/06/27 01:01:14;;;;;;;14.83;7.87;;;;;;;16.65;89.76;94545.52;1599514;86;21062;-57
2021/06/27 01:03:41;;;;;;;13.68;7.35;;;;;;;16.63;89.78;94539.69;1630144;86;21197;-58
2021/06/27 01:06:08;;;;;;;12.15;7.22;;;;;;;16.62;89.98;94543.72;1649766;86;21023;-56
2021/06/27 01:08:35;;;;;;;18.52;7.08;;;;;;;16.64;89.84;94539.82;1653160;85;21179;-56
2021/06/27 01:11:02;;;;;;;10.28;7.15;;;;;;;16.67;89.49;94545.78;1654453;85;21014;-58
2021/06/27 01:13:29;;;;;;;11.95;7.08;;;;;;;16.67;89.08;94543.00;1645480;85;21614;-58
2021/06/27 01:15:56;;;;;;;12.25;7.37;;;;;;;16.67;89.04;94541.61;1625033;86;21147;-55
2021/06/27 01:18:23;;;;;;;13.80;6.90;;;;;;;16.67;89.00;94548.56;1657503;86;21678;-56
2021/06/27 01:20:50;;;;;;;26.45;7.40;;;;;;;16.66;88.92;94539.48;1648436;85;21555;-56
2021/06/27 01:23:18;;;;;;;15.53;6.60;;;;;;;16.66;88.91;94536.70;1648281;86;21018;-57
2021/06/27 01:25:49;;;;;;;18.20;6.87;;;;;;;16.67;88.76;94526.34;1656071;85;21090;-57
2021/06/27 01:28:16;;;;;;;9.28;5.95;;;;;;;16.70;89.07;94532.33;1650037;86;21079;-58
2021/06/27 01:30:43;;;;;;;12.33;6.47;;;;;;;16.72;88.70;94531.20;1645435;86;21008;-57
2021/06/27 01:33:15;;;;;;;15.85;6.92;;;;;;;16.69;88.60;94526.63;1651594;86;21054;-58
2021/06/27 01:35:42;;;;;;;11.33;7.00;;;;;;;16.67;88.86;94524.95;1636897;86;20986;-57
2021/06/27 01:38:11;;;;;;;7.35;6.30;;;;;;;16.74;88.73;94528.69;1641583;86;21584;-59
2021/06/27 01:40:39;;;;;;;9.58;6.58;;;;;;;16.80;88.71;94515.60;1595070;89;21088;-56
2021/06/27 01:43:15;;;;;;;9.08;6.95;;;;;;;16.85;88.69;94524.60;1645884;86;20975;-59
2021/06/27 01:45:46;;;;;;;12.82;6.92;;;;;;;16.87;88.60;94520.73;1645428;86;21159;-58
2021/06/27 01:48:13;;;;;;;13.85;6.40;;;;;;;16.88;88.21;94516.69;1648304;86;21032;-57
2021/06/27 01:50:42;;;;;;;9.40;6.65;;;;;;;16.85;87.99;94521.82;1648219;86;21538;-56
2021/06/27 01:53:12;;;;;;;9.40;5.87;;;;;;;16.82;88.10;94515.87;1641018;86;21006;-58
2021/06/27 01:55:41;;;;;;;11.55;6.83;;;;;;;16.82;88.23;94517.25;1641990;86;21098;-58
2021/06/27 01:58:08;;;;;;;10.65;6.42;;;;;;;16.87;88.36;94520.73;1654237;86;21158;-56
2021/06/27 02:00:35;;;;;;;13.22;6.87;;;;;;;16.93;87.81;94522.27;1625549;86;21066;-56
2021/06/27 02:03:01;;;;;;;13.90;7.53;;;;;;;16.94;87.65;94510.55;1651303;86;21027;-57
2021/06/27 02:05:29;;;;;;;15.68;6.50;;;;;;;16.94;87.51;94513.32;1643729;86;20978;-56
2021/06/27 02:07:58;;;;;;;9.28;7.37;;;;;;;16.93;87.61;94507.63;1642210;86;20988;-56
2021/06/27 02:10:26;;;;;;;12.13;7.55;;;;;;;16.94;87.67;94511.93;1599900;88;21137;-58
2021/06/27 02:12:54;;;;;;;13.32;6.70;;;;;;;16.93;87.85;94515.97;1628837;86;21584;-56
2021/06/27 02:15:21;;;;;;;13.18;6.60;;;;;;;16.95;87.87;94516.23;1654719;85;21093;-58
2021/06/27 02:18:02;;;;;;;9.55;6.15;;;;;;;16.97;87.63;94519.28;1659370;85;20969;-56
2021/06/27 02:20:29;;;;;;;9.60;5.80;;;;;;;16.91;87.54;94511.53;1626676;86;21073;-57
2021/06/27 02:22:56;;;;;;;16.75;6.37;;;;;;;16.87;87.79;94521.47;1647092;85;21143;-56
2021/06/27 02:25:23;;;;;;;13.68;6.12;;;;;;;16.86;87.71;94521.34;1622909;86;21499;-57
2021/06/27 02:27:50;;;;;;;10.03;6.78;;;;;;;16.82;87.82;94513.09;1627178;85;21065;-58
2021/06/27 02:30:18;;;;;;;11.45;6.17;;;;;;;16.76;88.37;94500.53;1643362;86;20982;-57
2021/06/27 02:32:46;;;;;;;9.33;6.12;;;;;;;16.81;88.56;94499.84;1644731;86;20987;-57
2021/06/27 02:35:13;;;;;;;8.63;5.53;;;;;;;16.86;88.50;94506.67;1644806;87;21544;-58
2021/06/27 02:37:39;;;;;;;13.83;6.47;;;;;;;16.88;88.33;94516.69;1665176;85;21129;-57
2021/06/27 02:40:08;;;;;;;9.98;7.42;;;;;;;16.87;88.32;94515.92;1654467;85;20962;-57
2021/06/27 02:42:35;;;;;;;12.80;6.60;;;;;;;16.86;88.35;94522.73;1648980;85;21055;-59
2021/06/27 02:45:08;;;;;;;13.22;6.33;;;;;;;16.85;88.26;94512.87;1633634;86;21244;-58
2021/06/27 02:47:36;;;;;;;10.70;6.35;;;;;;;16.87;88.16;94515.92;1646199;86;21151;-56
2021/06/27 02:50:09;;;;;;;8.23;6.40;;;;;;;16.90;87.98;94515.57;1650647;85;21608;-57
2021/06/27 02:52:36;;;;;;;11.28;6.92;;;;;;;16.88;88.08;94527.17;1658701;86;20979;-57
2021/06/27 02:55:08;;;;;;;9.38;6.67;;;;;;;16.88;88.00;94522.25;1652522;85;21451;-57
2021/06/27 02:57:34;;;;;;;15.85;7.12;;;;;;;16.86;88.27;94525.51;1649275;86;21014;-57
2021/06/27 03:00:15;;;;;;;12.65;7.22;;;;;;;16.91;88.22;94528.20;1646970;85;21139;-56
2021/06/27 03:02:42;;;;;;;12.65;7.60;;;;;;;16.94;88.11;94522.41;1658490;85;20979;-57
2021/06/27 03:05:11;;;;;;;17.07;8.20;;;;;;;16.94;87.99;94530.00;1645148;86;21034;-56
2021/06/27 03:07:38;;;;;;;9.85;6.78;;;;;;;16.91;87.97;94529.59;1645149;86;21085;-58
2021/06/27 03:10:08;;;;;;;10.70;7.55;;;;;;;16.89;88.00;94526.55;1642103;86;21466;-59
2021/06/27 03:12:34;;;;;;;14.05;7.92;;;;;;;16.86;88.19;94526.91;1648236;86;21090;-57
2021/06/27 03:15:05;;;;;;;13.32;7.92;;;;;;;16.88;88.59;94531.98;1642500;86;21112;-59
2021/06/27 03:17:32;;;;;;;18.82;8.75;;;;;;;16.91;88.51;94527.56;1651678;85;21065;-55
2021/06/27 03:19:59;;;;;;;15.50;7.72;;;;;;;16.90;88.52;94531.60;1626537;86;20997;-58
2021/06/27 03:22:26;;;;;;;13.68;7.95;;;;;;;16.90;88.34;94538.55;1647092;86;20971;-59
2021/06/27 03:24:53;;;;;;;14.78;7.40;;;;;;;16.89;88.44;94540.45;1630817;86;21125;-59
2021/06/27 03:27:20;;;;;;;12.58;6.85;;;;;;;16.90;88.42;94537.16;1652306;85;21036;-57
2021/06/27 03:29:48;;;;;;;14.95;7.72;;;;;;;16.89;88.41;94534.89;1648979;86;21470;-57
2021/06/27 03:32:14;;;;;;;12.05;7.47;;;;;;;16.88;88.75;94536.89;1646365;86;21556;-57
2021/06/27 03:34:41;;;;;;;13.78;7.28;;;;;;;16.89;88.72;94543.23;1652155;86;21065;-59
2021/06/27 03:37:09;;;;;;;14.75;7.50;;;;;;;16.86;88.81;94547.73;1631660;87;21463;-58
2021/06/27 03:39:36;;;;;;;10.90;6.58;;;;;;;16.85;88.85;94551.00;1652599;85;21022;-58
2021/06/27 03:42:05;;;;;;;11.65;6.80;;;;;;;16.87;89.25;94548.52;1655439;86;21082;-56
2021/06/27 03:44:33;;;;;;;17.00;6.95;;;;;;;16.93;89.35;94550.70;1662322;85;21026;-58
2021/06/27 03:47:00;;;;;;;14.00;7.25;;;;;;;16.98;89.19;94552.77;1652821;86;21447;-57
2021/06/27 03:49:26;;;;;;;9.40;6.65;;;;;;;17.01;89.06;94555.94;1654057;85;21220;-57
2021/06/27 03:51:54;;;;;;;13.15;7.03;;;;;;;17.04;89.18;94554.95;1641745;85;21153;-57
2021/06/27 03:54:21;;;;;;;10.88;6.90;;;;;;;17.06;88.75;94548.30;1662296;85;21049;-58
2021/06/27 03:56:48;;;;;;;15.00;9.98;;;;;;;17.10;88.82;94555.13;1649618;86;21578;-58
2021/06/27 03:59:15;;;;;;;9.80;7.53;;;;;;;17.18;88.59;94545.10;1652905;85;21615;-57
2021/06/27 04:01:42;;;;;;;7.70;6.53;;;;;;;17.23;88.13;94544.98;1652455;86;21787;-57
2021/06/27 04:04:09;;;;;;;15.40;6.92;;;;;;;17.26;87.90;94543.38;1647791;86;21403;-58
2021/06/27 04:06:36;;;;;;;9.80;6.42;;;;;;;17.36;87.61;94541.20;1654425;85;21582;-58
2021/06/27 04:09:03;;;;;;;9.73;7.85;;;;;;;17.43;87.32;94532.41;1646080;86;21114;-59
2021/06/27 04:11:30;;;;;;;11.80;6.83;;;;;;;17.48;87.15;94533.08;1640527;85;21131;-60
2021/06/27 04:13:56;;;;;;;10.10;6.92;;;;;;;17.55;86.85;94535.37;1651682;86;21130;-60
2021/06/27 04:16:23;;;;;;;8.70;5.95;;;;;;;17.61;86.69;94538.98;1655349;85;21067;-58
2021/06/27 04:18:50;;;;;;;11.65;5.85;;;;;;;17.70;86.63;94540.15;1656088;84;21000;-57
2021/06/27 04:21:17;;;;;;;8.85;6.37;;;;;;;17.81;86.41;94545.14;1629598;87;20995;-58
2021/06/27 04:23:44;;;;;;;14.07;6.80;;;;;;;17.85;85.95;94537.31;1646582;86;21606;-58
2021/06/27 04:26:11;;;;;;;10.35;6.58;;;;;;;17.81;85.96;94531.88;1650818;86;21257;-56
2021/06/27 04:28:38;;;;;;;10.32;6.20;;;;;;;17.81;85.90;94540.97;1646200;85;21474;-58
2021/06/27 04:31:05;;;;;;;6.42;5.67;;;;;;;17.86;85.59;94538.09;1654629;85;21450;-57
2021/06/27 04:33:33;;;;;;;9.60;6.60;;;;;;;17.88;85.46;94540.52;1598436;86;21024;-57
2021/06/27 04:36:00;;;;;;;10.48;6.65;;;;;;;17.90;85.54;94537.22;1649908;86;21104;-57
2021/06/27 04:38:26;;;;;;;10.03;6.30;;;;;;;17.92;85.31;94527.73;1656664;85;21136;-58
2021/06/27 04:40:53;;;;;;;10.53;6.65;;;;;;;17.91;85.29;94526.98;1649764;86;21165;-57
2021/06/27 04:43:20;;;;;;;13.15;6.25;;;;;;;17.95;85.42;94529.51;1647089;85;20985;-57
2021/06/27 04:45:46;;;;;;;8.05;5.70;;;;;;;17.98;85.39;94537.63;1654712;85;21505;-57
2021/06/27 04:48:13;;;;;;;10.50;5.90;;;;;;;18.02;85.20;94538.15;1657689;85;21065;-58
2021/06/27 04:50:40;;;;;;;8.10;5.33;;;;;;;18.08;85.15;94529.83;1648902;86;21132;-58
2021/06/27 04:53:11;;;;;;;7.75;5.40;;;;;;;18.14;84.98;94536.94;1660093;85;21012;-57
2021/06/27 04:55:40;;;;;;;7.80;5.33;;;;;;;18.21;84.60;94538.62;1647354;85;21532;-57
2021/06/27 04:58:07;;;;;;;4.30;3.90;;;;;;;18.33;84.26;94534.64;1651033;86;21004;-57
2021/06/27 05:00:33;;;;;;;9.73;5.45;;;;;;;18.50;83.13;94525.67;1644419;86;21018;-57
2021/06/27 05:03:01;;;;;;;7.12;5.12;;;;;;;18.65;82.20;94529.00;1642713;86;21781;-57
2021/06/27 05:05:28;;;;;;;8.08;5.12;;;;;;;18.79;81.05;94526.62;1633116;86;21613;-57
2021/06/27 05:07:55;;;;;;;5.20;4.08;;;;;;;18.89;79.69;94526.52;1651601;85;20973;-57
2021/06/27 05:10:22;;;;;;;5.33;4.05;;;;;;;18.96;77.89;94520.42;1624945;85;21087;-57
2021/06/27 05:12:49;;;;;;;6.45;3.92;;;;;;;19.02;76.37;94521.17;1631551;86;21019;-57
2021/06/27 05:15:16;;;;;;;8.15;4.42;;;;;;;19.07;75.47;94525.23;1625308;86;21268;-57
2021/06/27 05:17:43;;;;;;;6.87;4.87;;;;;;;19.14;75.03;94522.70;1639318;86;21026;-58
2021/06/27 05:20:12;;;;;;;5.62;3.83;;;;;;;19.23;74.62;94530.83;1649482;86;21146;-56
2021/06/27 05:22:40;;;;;;;9.15;4.42;;;;;;;19.30;73.45;94527.55;1644835;86;20999;-57
2021/06/27 05:25:09;;;;;;;7.22;4.03;;;;;;;19.31;73.13;94522.09;1643817;86;21141;-57
2021/06/27 05:27:36;;;;;;;4.75;3.55;;;;;;;19.39;73.29;94532.11;1642345;86;22020;-59
2021/06/27 05:30:05;;;;;;;5.85;3.95;;;;;;;19.51;73.44;94535.77;1622959;86;21027;-57
2021/06/27 05:32:33;;;;;;;8.85;4.10;;;;;;;19.64;72.63;94531.81;1652982;86;21030;-57
2021/06/27 05:35:00;;;;;;;5.03;4.20;;;;;;;19.71;71.87;94534.08;1648277;86;20988;-58
2021/06/27 05:37:27;;;;;;;4.92;4.05;;;;;;;19.74;71.25;94535.84;1642498;86;21006;-58
2021/06/27 05:39:54;;;;;;;13.00;3.95;;;;;;;19.78;71.12;94530.74;1639920;86;21199;-57
2021/06/27 05:42:21;;;;;;;5.70;3.25;;;;;;;19.86;70.85;94531.75;1638535;85;21515;-56
2021/06/27 05:44:48;;;;;;;20.02;15.43;;;;;;;19.91;69.15;94540.74;1642101;86;21023;-59
2021/06/27 05:47:17;;;;;;;7.40;4.58;;;;;;;19.95;68.50;94538.44;1647142;86;21041;-59
2021/06/27 05:49:44;;;;;;;9.48;3.62;;;;;;;19.95;67.98;94539.84;1644996;86;20977;-58
2021/06/27 05:52:11;;;;;;;3.90;3.50;;;;;;;19.99;67.58;94537.56;1637662;86;21883;-58
2021/06/27 05:54:37;;;;;;;7.50;4.53;;;;;;;20.06;68.08;94534.88;1650530;86;21013;-57
2021/06/27 05:57:06;;;;;;;11.12;4.83;;;;;;;20.17;67.61;94539.16;1634910;86;21031;-58
2021/06/27 05:59:33;;;;;;;6.08;5.47;;;;;;;20.27;66.62;94534.81;1644042;85;21129;-56
2021/06/27 06:01:59;;;;;;;8.80;4.97;;;;;;;20.35;65.99;94543.41;1645502;86;21456;-57
2021/06/27 06:04:26;;;;;;;5.33;4.37;;;;;;;20.40;65.92;94539.83;1649381;86;21052;-56
2021/06/27 06:06:52;;;;;;;7.33;6.62;;;;;;;20.46;65.76;94539.16;1640211;86;21105;-57
2021/06/27 06:09:19;;;;;;;13.35;5.08;;;;;;;20.58;65.26;94532.23;1652850;86;21128;-57
2021/06/27 06:11:46;;;;;;;9.38;4.62;;;;;;;20.72;64.62;94528.34;1645626;86;21820;-58
2021/06/27 06:14:13;;;;;;;7.70;3.95;;;;;;;20.84;64.26;94522.19;1656259;85;21098;-58
2021/06/27 06:16:41;;;;;;;5.60;4.10;;;;;;;20.98;64.43;94529.47;1660093;86;21855;-58
2021/06/27 06:19:09;;;;;;;5.28;3.45;;;;;;;21.10;64.25;94534.34;1642722;86;21438;-58
2021/06/27 06:21:37;;;;;;;7.03;4.67;;;;;;;21.15;63.90;94531.48;1651843;85;20982;-57
2021/06/27 06:24:05;;;;;;;7.08;5.87;;;;;;;21.15;64.52;94528.68;1629806;86;20998;-57
2021/06/27 06:26:32;;;;;;;6.28;4.45;;;;;;;21.18;64.45;94538.08;1651012;85;20985;-58
2021/06/27 06:28:59;;;;;;;7.45;3.92;;;;;;;21.19;64.98;94534.00;1646673;86;21142;-58
2021/06/27 06:31:26;;;;;;;17.52;3.60;;;;;;;21.20;63.98;94530.70;1655533;86;20974;-59
2021/06/27 06:33:52;;;;;;;4.40;3.60;;;;;;;21.21;63.93;94533.61;1665127;86;21003;-59
2021/06/27 06:36:19;;;;;;;4.40;3.83;;;;;;;21.26;64.50;94534.85;1655805;86;20989;-57
2021/06/27 06:38:47;;;;;;;3.60;3.30;;;;;;;21.27;65.00;94535.72;1634152;86;39161;-58
2021/06/27 06:41:13;;;;;;;5.75;3.75;;;;;;;21.32;65.16;94542.55;1650460;85;21782;-59
2021/06/27 06:43:41;;;;;;;5.15;4.10;;;;;;;21.37;64.90;94547.34;1631027;87;20998;-59
2021/06/27 06:46:07;;;;;;;6.92;3.55;;;;;;;21.43;65.03;94541.04;1645309;86;20996;-59
2021/06/27 06:48:34;;;;;;;9.15;3.20;;;;;;;21.45;62.26;94550.45;1639992;86;21060;-57
2021/06/27 06:51:01;;;;;;;3.70;3.40;;;;;;;21.44;60.99;94546.78;1648630;86;21042;-56
2021/06/27 06:53:28;;;;;;;6.30;3.50;;;;;;;21.44;61.25;94548.93;1629028;86;21156;-57
2021/06/27 06:55:59;;;;;;;3.90;3.17;;;;;;;21.46;61.08;94545.63;1655239;86;21121;-56
2021/06/27 06:58:29;;;;;;;6.03;3.33;;;;;;;21.53;61.18;94550.64;1639549;86;21013;-57
2021/06/27 07:00:58;;;;;;;3.70;3.10;;;;;;;21.62;60.87;94558.72;1640332;86;21497;-58
2021/06/27 07:03:26;;;;;;;9.50;6.42;;;;;;;21.76;60.24;94564.58;1641025;86;21090;-58
2021/06/27 07:05:53;;;;;;;7.90;5.12;;;;;;;21.86;59.53;94559.50;1642477;86;21206;-58
2021/06/27 07:08:19;;;;;;;6.65;3.90;;;;;;;21.93;59.42;94560.97;1647200;86;21784;-58
2021/06/27 07:10:48;;;;;;;6.12;4.17;;;;;;;21.97;58.74;94564.23;1648347;85;20986;-58
2021/06/27 07:13:14;;;;;;;4.80;3.98;;;;;;;21.98;58.67;94555.31;1644754;86;20995;-57
2021/06/27 07:15:40;;;;;;;3.27;2.95;;;;;;;22.02;58.89;94564.84;1644015;86;21153;-57
2021/06/27 07:18:09;;;;;;;7.50;3.92;;;;;;;22.08;58.89;94568.44;1639344;86;21140;-58
2021/06/27 07:20:37;;;;;;;11.78;8.93;;;;;;;22.12;58.41;94573.10;1595231;89;21007;-59
2021/06/27 07:23:05;;;;;;;6.67;4.55;;;;;;;22.22;58.40;94576.31;1647096;85;21043;-59
2021/06/27 07:25:32;;;;;;;3.98;3.50;;;;;;;22.32;57.22;94569.07;1636495;86;21015;-60
2021/06/27 07:27:58;;;;;;;6.08;3.72;;;;;;;22.41;56.92;94576.51;1649949;85;21080;-58
2021/06/27 07:30:25;;;;;;;5.00;3.47;;;;;;;22.43;56.84;94576.73;1621691;87;21287;-58
2021/06/27 07:32:52;;;;;;;3.83;3.10;;;;;;;22.44;56.80;94567.03;1639689;86;21083;-58
2021/06/27 07:35:18;;;;;;;3.83;3.42;;;;;;;22.47;57.97;94577.84;1658904;86;20962;-59
2021/06/27 07:37:45;;;;;;;3.80;3.50;;;;;;;22.54;58.91;94586.42;1659741;85;21756;-59
2021/06/27 07:40:14;;;;;;;3.33;3.02;;;;;;;22.59;58.01;94583.41;1650409;85;20988;-58
2021/06/27 07:42:41;;;;;;;4.37;3.50;;;;;;;22.59;58.23;94589.80;1651469;85;21939;-59
2021/06/27 07:45:09;;;;;;;4.75;3.58;;;;;;;22.54;58.44;94589.86;1658515;85;21062;-59
2021/06/27 07:47:36;;;;;;;5.62;3.27;;;;;;;22.49;58.66;94587.23;1652900;85;20966;-60
2021/06/27 07:50:05;;;;;;;3.72;3.42;;;;;;;22.44;59.46;94592.27;1651976;86;21032;-59
2021/06/27 07:52:33;;;;;;;4.33;3.17;;;;;;;22.38;59.30;94595.02;1654300;85;21118;-59
2021/06/27 07:55:04;;;;;;;3.62;3.27;;;;;;;22.33;59.65;94581.80;1632530;86;21514;-58
2021/06/27 07:57:31;;;;;;;3.42;3.12;;;;;;;22.31;60.18;94582.31;1655310;85;21547;-59
2021/06/27 07:59:58;;;;;;;5.25;3.27;;;;;;;22.31;59.46;94585.12;1658615;84;21014;-59
2021/06/27 08:02:25;;;;;;;5.50;3.72;;;;;;;22.28;59.82;94584.77;1667131;85;21474;-58
2021/06/27 08:04:51;;;;;;;4.15;3.37;;;;;;;22.31;60.27;94586.52;1636014;85;21074;-58
2021/06/27 08:07:18;;;;;;;4.10;3.27;;;;;;;22.37;60.33;94585.83;1651096;86;21274;-60
2021/06/27 08:09:45;;;;;;;5.00;3.20;;;;;;;22.44;60.38;94583.86;1644101;86;21176;-59
2021/06/27 08:12:12;;;;;;;4.08;3.10;;;;;;;22.55;60.69;94581.56;1657019;85;21540;-58
2021/06/27 08:14:39;;;;;;;4.55;3.17;;;;;;;22.70;60.57;94585.43;1655401;86;21441;-59
2021/06/27 08:17:06;;;;;;;4.72;3.50;;;;;;;22.81;58.92;94585.30;1656987;85;21167;-60
2021/06/27 08:19:34;;;;;;;6.12;3.58;;;;;;;22.85;58.61;94585.74;1649395;85;21860;-59
2021/06/27 08:22:00;;;;;;;6.22;3.30;;;;;;;22.90;59.15;94591.95;1660621;86;21062;-58
2021/06/27 08:24:27;;;;;;;4.92;3.35;;;;;;;23.00;58.87;94588.86;1650853;86;21451;-58
2021/06/27 08:26:54;;;;;;;5.47;3.30;;;;;;;23.11;58.99;94584.53;1650093;86;21137;-59
2021/06/27 08:29:22;;;;;;;3.52;3.22;;;;;;;23.18;59.38;94595.13;1669245;85;21138;-59
2021/06/27 08:31:49;;;;;;;5.72;3.77;;;;;;;23.29;60.07;94582.34;1652023;86;21780;-59
2021/06/27 08:34:15;;;;;;;4.60;3.47;;;;;;;23.44;60.04;94584.66;1659894;85;21128;-59
2021/06/27 08:36:44;;;;;;;6.55;3.72;;;;;;;23.50;59.23;94587.50;1655453;85;21018;-60
2021/06/27 08:39:11;;;;;;;8.15;5.47;;;;;;;23.53;58.12;94587.83;1636273;85;21477;-58
2021/06/27 08:41:39;;;;;;;7.45;5.62;;;;;;;23.59;58.74;94588.48;1651601;85;20997;-58
2021/06/27 08:44:06;;;;;;;9.23;3.65;;;;;;;23.68;57.61;94592.31;1659145;85;21960;-59
2021/06/27 08:46:36;;;;;;;7.72;5.12;;;;;;;23.79;56.43;94589.30;1650342;85;21011;-58
2021/06/27 08:49:03;;;;;;;5.72;4.47;;;;;;;23.81;55.74;94595.80;1650927;86;21039;-58
2021/06/27 08:51:40;;;;;;;6.58;3.90;;;;;;;23.79;55.73;94594.17;1646108;85;20999;-59
2021/06/27 08:54:04;;;;;;;4.00;3.60;;;;;;;23.78;56.52;94587.05;1653393;85;21186;-60
2021/06/27 08:56:31;;;;;;;3.45;3.12;;;;;;;23.77;57.55;94598.17;1627615;87;21198;-58
2021/06/27 08:58:59;;;;;;;4.08;3.67;;;;;;;23.86;57.98;94597.14;1647781;86;21026;-58
2021/06/27 09:01:26;;;;;;;4.28;3.27;;;;;;;24.00;57.37;94593.07;1647295;86;21016;-61
2021/06/27 09:03:55;;;;;;;4.60;3.50;;;;;;;24.19;56.78;94592.34;1629845;85;21482;-59
2021/06/27 09:06:33;;;;;;;4.58;3.17;;;;;;;24.25;56.31;94587.36;1652508;86;21138;-58
2021/06/27 09:09:19;;;;;;;4.10;3.20;;;;;;;24.29;56.04;94583.57;1647183;86;21150;-60
2021/06/27 09:12:02;;;;;;;5.60;4.37;;;;;;;24.30;55.81;94581.63;1644403;85;21079;-58
2021/06/27 09:14:36;;;;;;;9.68;5.95;;;;;;;24.21;55.72;94579.23;1645379;86;21074;-57
2021/06/27 09:17:18;;;;;;;7.65;5.70;;;;;;;24.09;54.94;94578.58;1643629;86;21108;-56
2021/06/27 09:20:03;;;;;;;9.68;6.90;;;;;;;24.01;55.15;94576.31;1642935;86;21155;-58
2021/06/27 09:22:33;;;;;;;11.53;9.03;;;;;;;23.95;54.55;94589.69;1647409;86;21140;-58
2021/06/27 09:25:26;;;;;;;16.30;12.10;;;;;;;23.88;54.20;94582.54;1643791;86;20981;-59
2021/06/27 09:28:01;;;;;;;23.65;16.25;;;;;;;23.84;54.70;94582.11;1641736;86;21027;-58
2021/06/27 09:30:28;;;;;;;17.73;11.75;;;;;;;23.83;55.13;94579.19;1640559;86;21086;-58
2021/06/27 09:33:09;;;;;;;18.52;10.53;;;;;;;23.85;55.46;94580.17;1643061;86;21605;-59
2021/06/27 09:35:49;;;;;;;11.53;5.85;;;;;;;23.93;54.79;94572.61;1642749;86;21157;-59
2021/06/27 09:38:45;;;;;;;4.87;4.03;;;;;;;24.05;56.39;94577.48;1637950;86;21132;-58
2021/06/27 09:41:23;;;;;;;4.42;3.62;;;;;;;24.19;56.29;94579.02;1641663;86;21070;-59
2021/06/27 09:43:55;;;;;;;5.17;4.35;;;;;;;24.26;55.30;94581.84;1642236;86;21531;-60
2021/06/27 09:46:39;;;;;;;;;;;;;;;24.25;56.63;94578.92;1644157;86;20987;-60
2021/06/27 09:49:34;;;;;;;10.30;4.72;;;;;;;24.19;55.91;94577.61;1635582;86;21152;-58
2021/06/27 09:52:03;;;;;;;9.45;5.35;;;;;;;24.09;56.63;94575.77;1640559;86;21448;-58
2021/06/27 09:54:28;;;;;;;5.07;3.83;;;;;;;24.00;55.28;94582.57;1643737;85;21150;-60
2021/06/27 09:56:57;;;;;;;9.58;4.03;;;;;;;23.93;55.85;94577.48;1641016;86;21082;-60
2021/06/27 09:59:42;;;;;;;4.67;4.17;;;;;;;24.01;57.51;94581.94;1611556;87;20974;-59
2021/06/27 10:02:09;;;;;;;5.87;3.65;;;;;;;24.21;58.20;94579.91;1613255;89;21292;-59
2021/06/27 10:04:38;;;;;;;4.10;3.70;;;;;;;24.51;57.68;94583.13;1613486;89;21454;-60
2021/06/27 10:07:08;;;;;;;7.15;4.33;;;;;;;24.82;56.07;94582.27;1641238;85;21158;-59
2021/06/27 10:09:36;;;;;;;4.50;3.90;;;;;;;25.05;55.22;94572.03;1648696;86;21031;-59
2021/06/27 10:12:16;;;;;;;4.47;4.00;;;;;;;25.30;56.02;94577.53;1643758;86;21583;-59
2021/06/27 10:14:59;;;;;;;7.55;3.52;;;;;;;25.43;55.06;94580.28;1630509;86;21812;-59
2021/06/27 10:17:28;;;;;;;4.10;3.58;;;;;;;25.51;53.78;94578.31;1628699;87;21476;-59
2021/06/27 10:19:56;;;;;;;5.05;3.80;;;;;;;25.52;52.53;94578.41;1598466;88;21137;-59
2021/06/27 10:22:26;;;;;;;7.95;4.15;;;;;;;25.49;53.48;94579.52;1652392;86;21543;-62
2021/06/27 10:24:56;;;;;;;4.72;3.62;;;;;;;25.46;53.31;94583.44;1652861;85;21183;-59
2021/06/27 10:27:25;;;;;;;3.45;3.02;;;;;;;25.39;53.06;94580.63;1659593;85;21324;-60
2021/06/27 10:29:51;;;;;;;5.03;3.90;;;;;;;25.36;52.08;94568.29;1659832;85;21280;-59
2021/06/27 10:32:20;;;;;;;3.98;3.58;;;;;;;25.39;53.86;94561.55;1668129;85;20995;-61
2021/06/27 10:34:48;;;;;;;7.10;3.22;;;;;;;25.55;52.74;94573.08;1657180;86;21026;-60
2021/06/27 10:37:38;;;;;;;6.92;3.10;;;;;;;25.78;52.28;94567.00;1655660;85;21113;-60
2021/06/27 10:40:15;;;;;;;5.60;3.72;;;;;;;26.02;52.53;94566.02;1654576;85;21538;-60
2021/06/27 10:42:57;;;;;;;3.92;3.55;;;;;;;26.27;50.26;94557.28;1653367;85;21142;-59
2021/06/27 10:45:32;;;;;;;5.67;3.65;;;;;;;26.42;51.00;94553.89;1653723;86;21361;-60
2021/06/27 10:48:02;;;;;;;3.60;2.90;;;;;;;26.35;49.49;94558.84;1654829;86;20995;-61
2021/06/27 10:50:52;;;;;;;7.35;3.45;;;;;;;26.48;48.98;94568.63;1647043;86;21012;-58
2021/06/27 10:53:19;;;;;;;6.67;3.25;;;;;;;26.50;48.49;94563.84;1651530;86;21110;-58
2021/06/27 10:55:48;;;;;;;5.30;3.33;;;;;;;26.60;49.27;94562.78;1641891;85;21030;-58
2021/06/27 10:58:17;;;;;;;4.45;3.05;;;;;;;26.49;47.59;94559.52;1651347;86;21523;-59
2021/06/27 11:01:00;;;;;;;4.08;2.95;;;;;;;26.78;49.40;94558.15;1643940;86;21038;-61
2021/06/27 11:03:30;;;;;;;3.95;3.10;;;;;;;26.71;48.50;94553.97;1642669;86;21197;-59
2021/06/27 11:06:02;;;;;;;4.25;3.40;;;;;;;26.52;47.31;94560.55;1642031;85;21124;-60
2021/06/27 11:08:34;;;;;;;15.10;4.47;;;;;;;26.48;48.33;94557.34;1644787;85;20995;-60
2021/06/27 11:11:16;;;;;;;4.25;3.17;;;;;;;26.64;48.65;94544.82;1642913;85;21056;-60
2021/06/27 11:14:07;;;;;;;4.37;2.95;;;;;;;26.60;47.67;94543.02;1634181;86;21018;-60
2021/06/27 11:16:37;;;;;;;2.75;2.52;;;;;;;26.50;47.53;94546.25;1645022;86;21102;-61
2021/06/27 11:19:04;;;;;;;3.83;2.98;;;;;;;26.63;45.76;94532.02;1626061;86;21329;-59
2021/06/27 11:21:37;;;;;;;5.08;3.30;;;;;;;26.51;46.59;94535.05;1606481;85;21061;-60
2021/06/27 11:24:06;;;;;;;3.87;3.00;;;;;;;26.29;46.54;94541.97;1656196;85;20958;-60
2021/06/27 11:26:50;;;;;;;3.15;2.85;;;;;;;26.60;46.99;94528.14;1650608;85;21364;-62
2021/06/27 11:29:31;;;;;;;3.45;2.62;;;;;;;27.09;47.04;94535.14;1648662;86;21103;-61
2021/06/27 11:32:13;;;;;;;2.87;2.62;;;;;;;27.80;46.56;94533.52;1614915;87;21096;-60
2021/06/27 11:34:54;;;;;;;4.83;2.90;;;;;;;28.56;44.85;94527.93;1619944;87;21019;-63
2021/06/27 11:37:26;;;;;;;3.02;2.80;;;;;;;28.74;43.57;94526.74;1637992;86;21467;-62
2021/06/27 11:39:56;;;;;;;4.33;2.85;;;;;;;28.57;43.37;94530.85;1641710;86;21021;-60